sensor_id;sensor_type;location;lat;lon;timestamp;pressure;altitude;pressure_sealevel;temperature;humidity
45541;BME280;31265;49.680;8.608;2022-09-12T00:00:05;100678.16;;;12.38;100.00
45541;BME280;31265;49.680;8.608;2022-09-12T00:02:37;100677.78;;;12.41;100.00
45541;BME280;31265;49.680;8.608;2022-09-12T00:05:07;100674.81;;;12.39;100.00
45541;BME280;31265;49.680;8.608;2022-09-12T00:07:35;100665.19;;;12.33;100.00
45541;BME280;31265;49.680;8.608;2022-09-12T00:10:04;100667.47;;;12.26;100.00
45541;BME280;31265;49.680;8.608;2022-09-12T00:12:32;100673.41;;;12.23;100.00
45541;BME280;31265;49.680;8.608;2022-09-12T00:15:00;100665.31;;;12.17;100.00
45541;BME280;31265;49.680;8.608;2022-09-12T00:17:29;100667.16;;;12.15;100.00
45541;BME280;31265;49.680;8.608;2022-09-12T00:19:57;100674.03;;;12.14;100.00
45541;BME280;31265;49.680;8.608;2022-09-12T00:22:26;100667.91;;;12.15;100.00
45541;BME280;31265;49.680;8.608;2022-09-12T00:24:54;100668.63;;;12.16;100.00
45541;BME280;31265;49.680;8.608;2022-09-12T00:27:22;100669.78;;;12.13;100.00
45541;BME280;31265;49.680;8.608;2022-09-12T00:29:50;100665.34;;;12.10;100.00
45541;BME280;31265;49.680;8.608;2022-09-12T00:32:18;100666.47;;;12.07;100.00
45541;BME280;31265;49.680;8.608;2022-09-12T00:34:47;100663.91;;;12.01;100.00
45541;BME280;31265;49.680;8.608;2022-09-12T00:37:15;100667.63;;;11.96;100.00
45541;BME280;31265;49.680;8.608;2022-09-12T00:39:47;100661.72;;;11.92;100.00
45541;BME280;31265;49.680;8.608;2022-09-12T00:42:18;100663.94;;;11.93;100.00
45541;BME280;31265;49.680;8.608;2022-09-12T00:44:50;100660.97;;;11.91;100.00
45541;BME280;31265;49.680;8.608;2022-09-12T00:47:22;100654.13;;;11.92;100.00
45541;BME280;31265;49.680;8.608;2022-09-12T00:49:54;100658.38;;;11.93;100.00
45541;BME280;31265;49.680;8.608;2022-09-12T00:52:27;100662.47;;;11.92;100.00
45541;BME280;31265;49.680;8.608;2022-09-12T00:55:02;100671.69;;;12.02;100.00
45541;BME280;31265;49.680;8.608;2022-09-12T00:57:36;100665.41;;;12.02;100.00
45541;BME280;31265;49.680;8.608;2022-09-12T01:00:08;100666.50;;;11.99;100.00
45541;BME280;31265;49.680;8.608;2022-09-12T01:02:40;100665.44;;;11.94;100.00
45541;BME280;31265;49.680;8.608;2022-09-12T01:05:08;100659.34;;;11.88;100.00
45541;BME280;31265;49.680;8.608;2022-09-12T01:07:37;100661.00;;;11.83;100.00
45541;BME280;31265;49.680;8.608;2022-09-12T01:10:08;100659.91;;;11.79;100.00
45541;BME280;31265;49.680;8.608;2022-09-12T01:12:39;100666.59;;;11.76;100.00
45541;BME280;31265;49.680;8.608;2022-09-12T01:15:08;100659.94;;;11.71;100.00
45541;BME280;31265;49.680;8.608;2022-09-12T01:17:47;100657.19;;;11.63;100.00
45541;BME280;31265;49.680;8.608;2022-09-12T01:20:36;100657.00;;;11.61;100.00
45541;BME280;31265;49.680;8.608;2022-09-12T01:23:10;100655.34;;;11.58;100.00
45541;BME280;31265;49.680;8.608;2022-09-12T01:26:01;100651.47;;;11.54;100.00
45541;BME280;31265;49.680;8.608;2022-09-12T01:28:49;100655.00;;;11.54;100.00
45541;BME280;31265;49.680;8.608;2022-09-12T01:31:28;100655.91;;;11.57;100.00
45541;BME280;31265;49.680;8.608;2022-09-12T01:34:10;100647.41;;;11.55;100.00
45541;BME280;31265;49.680;8.608;2022-09-12T01:36:47;100640.19;;;11.52;100.00
45541;BME280;31265;49.680;8.608;2022-09-12T01:39:29;100647.59;;;11.49;100.00
45541;BME280;31265;49.680;8.608;2022-09-12T01:42:08;100643.34;;;11.48;100.00
45541;BME280;31265;49.680;8.608;2022-09-12T01:44:46;100641.88;;;11.47;100.00
45541;BME280;31265;49.680;8.608;2022-09-12T01:47:21;100640.41;;;11.46;100.00
45541;BME280;31265;49.680;8.608;2022-09-12T01:49:56;100641.72;;;11.45;100.00
45541;BME280;31265;49.680;8.608;2022-09-12T01:52:30;100641.72;;;11.45;100.00
45541;BME280;31265;49.680;8.608;2022-09-12T01:55:04;100636.69;;;11.44;100.00
45541;BME280;31265;49.680;8.608;2022-09-12T01:57:40;100628.56;;;11.46;100.00
45541;BME280;31265;49.680;8.608;2022-09-12T02:00:11;100628.88;;;11.50;100.00
45541;BME280;31265;49.680;8.608;2022-09-12T02:02:44;100628.50;;;11.53;100.00
45541;BME280;31265;49.680;8.608;2022-09-12T02:05:19;100631.47;;;11.55;100.00
45541;BME280;31265;49.680;8.608;2022-09-12T02:07:51;100632.22;;;11.56;100.00
45541;BME280;31265;49.680;8.608;2022-09-12T02:10:22;100625.19;;;11.55;100.00
45541;BME280;31265;49.680;8.608;2022-09-12T02:13:00;100622.75;;;11.59;100.00
45541;BME280;31265;49.680;8.608;2022-09-12T02:15:33;100616.63;;;11.60;100.00
45541;BME280;31265;49.680;8.608;2022-09-12T02:18:04;100616.63;;;11.60;100.00
45541;BME280;31265;49.680;8.608;2022-09-12T02:20:35;100619.97;;;11.59;100.00
45541;BME280;31265;49.680;8.608;2022-09-12T02:23:23;100616.28;;;11.56;100.00
45541;BME280;31265;49.680;8.608;2022-09-12T02:25:57;100626.28;;;11.52;100.00
45541;BME280;31265;49.680;8.608;2022-09-12T02:28:29;100618.56;;;11.43;100.00
45541;BME280;31265;49.680;8.608;2022-09-12T02:31:04;100619.88;;;11.34;100.00
45541;BME280;31265;49.680;8.608;2022-09-12T02:33:41;100618.41;;;11.33;100.00
45541;BME280;31265;49.680;8.608;2022-09-12T02:36:14;100621.56;;;11.29;100.00
45541;BME280;31265;49.680;8.608;2022-09-12T02:38:49;100614.53;;;11.28;100.00
45541;BME280;31265;49.680;8.608;2022-09-12T02:41:18;100621.94;;;11.26;100.00
45541;BME280;31265;49.680;8.608;2022-09-12T02:43:48;100620.84;;;11.21;100.00
45541;BME280;31265;49.680;8.608;2022-09-12T02:46:17;100620.13;;;11.21;100.00
45541;BME280;31265;49.680;8.608;2022-09-12T02:48:48;100611.22;;;11.14;100.00
45541;BME280;31265;49.680;8.608;2022-09-12T02:51:17;100610.69;;;11.08;100.00
45541;BME280;31265;49.680;8.608;2022-09-12T02:53:49;100612.16;;;11.09;100.00
45541;BME280;31265;49.680;8.608;2022-09-12T02:56:22;100609.41;;;11.09;100.00
45541;BME280;31265;49.680;8.608;2022-09-12T02:58:53;100607.72;;;11.14;100.00
45541;BME280;31265;49.680;8.608;2022-09-12T03:01:35;100609.03;;;11.13;100.00
45541;BME280;31265;49.680;8.608;2022-09-12T03:04:18;100610.31;;;11.12;100.00
45541;BME280;31265;49.680;8.608;2022-09-12T03:06:59;100604.03;;;11.11;100.00
45541;BME280;31265;49.680;8.608;2022-09-12T03:09:35;100602.38;;;11.08;100.00
45541;BME280;31265;49.680;8.608;2022-09-12T03:12:17;100597.56;;;11.01;100.00
45541;BME280;31265;49.680;8.608;2022-09-12T03:15:07;100590.91;;;10.96;100.00
45541;BME280;31265;49.680;8.608;2022-09-12T03:17:46;100608.31;;;10.97;100.00
45541;BME280;31265;49.680;8.608;2022-09-12T03:20:21;100604.44;;;10.92;100.00
45541;BME280;31265;49.680;8.608;2022-09-12T03:22:52;100600.00;;;10.89;100.00
45541;BME280;31265;49.680;8.608;2022-09-12T03:25:26;100597.94;;;10.90;100.00
45541;BME280;31265;49.680;8.608;2022-09-12T03:27:58;100596.69;;;10.91;100.00
45541;BME280;31265;49.680;8.608;2022-09-12T03:30:36;100593.53;;;10.87;100.00
45541;BME280;31265;49.680;8.608;2022-09-12T03:33:05;100596.84;;;10.85;100.00
45541;BME280;31265;49.680;8.608;2022-09-12T03:35:34;100595.00;;;10.88;100.00
45541;BME280;31265;49.680;8.608;2022-09-12T03:38:02;100595.00;;;10.88;100.00
45541;BME280;31265;49.680;8.608;2022-09-12T03:40:30;100602.41;;;10.85;100.00
45541;BME280;31265;49.680;8.608;2022-09-12T03:42:58;100596.13;;;10.85;100.00
45541;BME280;31265;49.680;8.608;2022-09-12T03:45:27;100591.69;;;10.82;100.00
45541;BME280;31265;49.680;8.608;2022-09-12T03:47:55;100597.59;;;10.86;100.00
45541;BME280;31265;49.680;8.608;2022-09-12T03:50:23;100586.66;;;10.88;100.00
45541;BME280;31265;49.680;8.608;2022-09-12T03:52:52;100594.84;;;10.86;100.00
45541;BME280;31265;49.680;8.608;2022-09-12T03:55:20;100588.34;;;10.75;100.00
45541;BME280;31265;49.680;8.608;2022-09-12T03:57:51;100592.63;;;10.69;100.00
45541;BME280;31265;49.680;8.608;2022-09-12T04:00:19;100599.84;;;10.64;100.00
45541;BME280;31265;49.680;8.608;2022-09-12T04:02:47;100602.44;;;10.62;100.00
45541;BME280;31265;49.680;8.608;2022-09-12T04:05:15;100591.16;;;10.60;100.00
45541;BME280;31265;49.680;8.608;2022-09-12T04:07:43;100595.22;;;10.59;100.00
45541;BME280;31265;49.680;8.608;2022-09-12T04:10:13;100588.03;;;10.56;100.00
45541;BME280;31265;49.680;8.608;2022-09-12T04:12:44;100596.88;;;10.62;100.00
45541;BME280;31265;49.680;8.608;2022-09-12T04:15:12;100599.84;;;10.64;100.00
45541;BME280;31265;49.680;8.608;2022-09-12T04:17:40;100603.16;;;10.70;100.00
45541;BME280;31265;49.680;8.608;2022-09-12T04:20:08;100609.84;;;10.67;100.00
45541;BME280;31265;49.680;8.608;2022-09-12T04:22:36;100604.28;;;10.67;100.00
45541;BME280;31265;49.680;8.608;2022-09-12T04:25:05;100605.91;;;11.01;100.00
45541;BME280;31265;49.680;8.608;2022-09-12T04:27:35;100614.56;;;11.05;100.00
45541;BME280;31265;49.680;8.608;2022-09-12T04:30:04;100606.28;;;10.90;100.00
45541;BME280;31265;49.680;8.608;2022-09-12T04:32:32;100607.78;;;10.83;100.00
45541;BME280;31265;49.680;8.608;2022-09-12T04:35:00;100614.28;;;10.78;100.00
45541;BME280;31265;49.680;8.608;2022-09-12T04:37:27;100618.34;;;10.69;100.00
45541;BME280;31265;49.680;8.608;2022-09-12T04:39:55;100614.09;;;10.68;100.00
45541;BME280;31265;49.680;8.608;2022-09-12T04:42:25;100616.69;;;10.66;100.00
45541;BME280;31265;49.680;8.608;2022-09-12T04:44:54;100611.88;;;10.59;100.00
45541;BME280;31265;49.680;8.608;2022-09-12T04:47:22;100614.66;;;10.59;100.00
45541;BME280;31265;49.680;8.608;2022-09-12T04:49:50;100615.78;;;10.56;100.00
45541;BME280;31265;49.680;8.608;2022-09-12T04:52:18;100614.84;;;10.53;100.00
45541;BME280;31265;49.680;8.608;2022-09-12T04:54:46;100604.66;;;10.56;100.00
45541;BME280;31265;49.680;8.608;2022-09-12T04:57:14;100608.38;;;10.51;100.00
45541;BME280;31265;49.680;8.608;2022-09-12T04:59:42;100606.88;;;10.58;100.00
45541;BME280;31265;49.680;8.608;2022-09-12T05:02:12;100617.97;;;10.65;100.00
45541;BME280;31265;49.680;8.608;2022-09-12T05:04:40;100616.69;;;10.66;100.00
45541;BME280;31265;49.680;8.608;2022-09-12T05:07:08;100612.81;;;10.62;100.00
45541;BME280;31265;49.680;8.608;2022-09-12T05:09:36;100606.31;;;10.59;100.00
45541;BME280;31265;49.680;8.608;2022-09-12T05:12:04;100613.16;;;10.58;100.00
45541;BME280;31265;49.680;8.608;2022-09-12T05:14:33;100611.31;;;10.53;100.00
45541;BME280;31265;49.680;8.608;2022-09-12T05:17:02;100607.63;;;10.50;100.00
45541;BME280;31265;49.680;8.608;2022-09-12T05:19:33;100612.44;;;10.50;100.00
45541;BME280;31265;49.680;8.608;2022-09-12T05:22:01;100618.34;;;10.54;100.00
45541;BME280;31265;49.680;8.608;2022-09-12T05:24:30;100618.72;;;10.58;100.00
45541;BME280;31265;49.680;8.608;2022-09-12T05:26:58;100622.06;;;10.64;100.00
45541;BME280;31265;49.680;8.608;2022-09-12T05:29:26;100613.91;;;10.74;100.00
45541;BME280;31265;49.680;8.608;2022-09-12T05:31:54;100617.22;;;10.80;100.00
45541;BME280;31265;49.680;8.608;2022-09-12T05:34:22;100610.38;;;10.89;100.00
45541;BME280;31265;49.680;8.608;2022-09-12T05:36:52;100615.91;;;10.96;100.00
45541;BME280;31265;49.680;8.608;2022-09-12T05:39:20;100614.41;;;11.03;100.00
45541;BME280;31265;49.680;8.608;2022-09-12T05:41:48;100616.59;;;11.12;100.00
45541;BME280;31265;49.680;8.608;2022-09-12T05:44:15;100622.31;;;11.22;100.00
45541;BME280;31265;49.680;8.608;2022-09-12T05:46:43;100614.72;;;11.30;100.00
45541;BME280;31265;49.680;8.608;2022-09-12T05:49:12;100620.75;;;11.44;100.00
45541;BME280;31265;49.680;8.608;2022-09-12T05:51:42;100618.72;;;11.52;100.00
45541;BME280;31265;49.680;8.608;2022-09-12T05:54:16;100618.50;;;11.58;100.00
45541;BME280;31265;49.680;8.608;2022-09-12T05:56:47;100616.03;;;11.70;100.00
45541;BME280;31265;49.680;8.608;2022-09-12T05:59:16;100620.41;;;11.88;100.00
45541;BME280;31265;49.680;8.608;2022-09-12T06:01:45;100615.72;;;11.98;100.00
45541;BME280;31265;49.680;8.608;2022-09-12T06:04:15;100615.09;;;12.08;100.00
45541;BME280;31265;49.680;8.608;2022-09-12T06:06:44;100625.56;;;12.24;100.00
45541;BME280;31265;49.680;8.608;2022-09-12T06:09:14;100621.94;;;12.39;100.00
45541;BME280;31265;49.680;8.608;2022-09-12T06:11:44;100612.03;;;12.46;100.00
45541;BME280;31265;49.680;8.608;2022-09-12T06:14:14;100603.97;;;12.58;100.00
45541;BME280;31265;49.680;8.608;2022-09-12T06:16:42;100613.50;;;12.72;100.00
45541;BME280;31265;49.680;8.608;2022-09-12T06:19:14;100608.75;;;12.82;100.00
45541;BME280;31265;49.680;8.608;2022-09-12T06:21:43;100608.78;;;13.00;100.00
45541;BME280;31265;49.680;8.608;2022-09-12T06:24:11;100603.78;;;13.16;100.00
45541;BME280;31265;49.680;8.608;2022-09-12T06:26:41;100597.47;;;13.32;100.00
45541;BME280;31265;49.680;8.608;2022-09-12T06:29:09;100600.56;;;13.54;100.00
45541;BME280;31265;49.680;8.608;2022-09-12T06:31:40;100602.97;;;13.67;100.00
45541;BME280;31265;49.680;8.608;2022-09-12T06:34:10;100595.72;;;13.82;100.00
45541;BME280;31265;49.680;8.608;2022-09-12T06:36:39;100593.19;;;14.03;100.00
45541;BME280;31265;49.680;8.608;2022-09-12T06:39:10;100591.38;;;14.25;100.00
45541;BME280;31265;49.680;8.608;2022-09-12T06:41:38;100595.59;;;14.53;100.00
45541;BME280;31265;49.680;8.608;2022-09-12T06:44:13;100586.50;;;14.62;100.00
45541;BME280;31265;49.680;8.608;2022-09-12T06:46:42;100591.25;;;14.89;100.00
45541;BME280;31265;49.680;8.608;2022-09-12T06:49:11;100588.19;;;15.14;100.00
45541;BME280;31265;49.680;8.608;2022-09-12T06:51:40;100596.25;;;15.49;100.00
45541;BME280;31265;49.680;8.608;2022-09-12T06:54:11;100594.16;;;15.49;100.00
45541;BME280;31265;49.680;8.608;2022-09-12T06:56:40;100599.28;;;15.82;100.00
45541;BME280;31265;49.680;8.608;2022-09-12T06:59:08;100597.53;;;15.77;100.00
45541;BME280;31265;49.680;8.608;2022-09-12T07:01:37;100605.66;;;16.14;100.00
45541;BME280;31265;49.680;8.608;2022-09-12T07:04:07;100596.69;;;16.06;100.00
45541;BME280;31265;49.680;8.608;2022-09-12T07:06:36;100601.41;;;16.13;100.00
45541;BME280;31265;49.680;8.608;2022-09-12T07:09:06;100600.41;;;16.61;100.00
45541;BME280;31265;49.680;8.608;2022-09-12T07:11:36;100604.63;;;16.93;100.00
45541;BME280;31265;49.680;8.608;2022-09-12T07:14:06;100601.09;;;16.93;100.00
45541;BME280;31265;49.680;8.608;2022-09-12T07:16:35;100600.31;;;17.02;100.00
45541;BME280;31265;49.680;8.608;2022-09-12T07:19:06;100602.13;;;17.31;100.00
45541;BME280;31265;49.680;8.608;2022-09-12T07:21:35;100613.66;;;18.03;100.00
45541;BME280;31265;49.680;8.608;2022-09-12T07:24:07;100604.88;;;18.09;100.00
45541;BME280;31265;49.680;8.608;2022-09-12T07:26:37;100611.44;;;17.90;100.00
45541;BME280;31265;49.680;8.608;2022-09-12T07:29:05;100608.16;;;17.94;100.00
45541;BME280;31265;49.680;8.608;2022-09-12T07:31:54;100605.72;;;17.88;100.00
45541;BME280;31265;49.680;8.608;2022-09-12T07:34:24;100614.88;;;17.89;100.00
45541;BME280;31265;49.680;8.608;2022-09-12T07:36:52;100613.22;;;17.74;100.00
45541;BME280;31265;49.680;8.608;2022-09-12T07:39:20;100611.47;;;18.14;100.00
45541;BME280;31265;49.680;8.608;2022-09-12T07:41:48;100609.75;;;17.97;100.00
45541;BME280;31265;49.680;8.608;2022-09-12T07:44:16;100603.91;;;18.40;100.00
45541;BME280;31265;49.680;8.608;2022-09-12T07:46:44;100604.38;;;18.36;100.00
45541;BME280;31265;49.680;8.608;2022-09-12T07:49:12;100610.59;;;18.46;100.00
45541;BME280;31265;49.680;8.608;2022-09-12T07:51:42;100614.13;;;18.82;100.00
45541;BME280;31265;49.680;8.608;2022-09-12T07:54:10;100609.25;;;18.59;100.00
45541;BME280;31265;49.680;8.608;2022-09-12T07:56:38;100608.25;;;18.90;100.00
45541;BME280;31265;49.680;8.608;2022-09-12T07:59:06;100598.38;;;19.15;100.00
45541;BME280;31265;49.680;8.608;2022-09-12T08:01:34;100607.53;;;19.15;100.00
45541;BME280;31265;49.680;8.608;2022-09-12T08:04:03;100606.88;;;19.80;100.00
45541;BME280;31265;49.680;8.608;2022-09-12T08:06:32;100611.16;;;19.55;100.00
45541;BME280;31265;49.680;8.608;2022-09-12T08:09:04;100610.06;;;19.48;100.00
45541;BME280;31265;49.680;8.608;2022-09-12T08:11:33;100612.91;;;19.74;100.00
45541;BME280;31265;49.680;8.608;2022-09-12T08:14:02;100613.56;;;19.86;100.00
45541;BME280;31265;49.680;8.608;2022-09-12T08:16:31;100611.31;;;20.10;100.00
45541;BME280;31265;49.680;8.608;2022-09-12T08:19:01;100608.41;;;20.64;100.00
45541;BME280;31265;49.680;8.608;2022-09-12T08:21:31;100609.72;;;20.90;100.00
45541;BME280;31265;49.680;8.608;2022-09-12T08:24:00;100611.03;;;21.17;100.00
45541;BME280;31265;49.680;8.608;2022-09-12T08:26:31;100625.03;;;21.15;100.00
45541;BME280;31265;49.680;8.608;2022-09-12T08:29:00;100615.16;;;21.75;100.00
45541;BME280;31265;49.680;8.608;2022-09-12T08:31:28;100616.66;;;21.76;100.00
45541;BME280;31265;49.680;8.608;2022-09-12T08:33:57;100610.25;;;21.76;100.00
45541;BME280;31265;49.680;8.608;2022-09-12T08:36:27;100608.88;;;21.61;100.00
45541;BME280;31265;49.680;8.608;2022-09-12T08:38:56;100610.44;;;21.34;100.00
45541;BME280;31265;49.680;8.608;2022-09-12T08:41:29;100598.56;;;21.52;100.00
45541;BME280;31265;49.680;8.608;2022-09-12T08:47:19;100595.88;;;21.69;100.00
45541;BME280;31265;49.680;8.608;2022-09-12T08:49:54;100604.25;;;22.15;100.00
45541;BME280;31265;49.680;8.608;2022-09-12T08:52:27;100597.22;;;22.48;100.00
45541;BME280;31265;49.680;8.608;2022-09-12T08:55:01;100594.59;;;21.88;100.00
45541;BME280;31265;49.680;8.608;2022-09-12T08:57:32;100599.66;;;22.56;100.00
45541;BME280;31265;49.680;8.608;2022-09-12T09:00:10;100606.47;;;22.84;99.00
45541;BME280;31265;49.680;8.608;2022-09-12T09:02:58;100607.59;;;22.77;96.35
45541;BME280;31265;49.680;8.608;2022-09-12T09:05:41;100608.41;;;22.80;100.00
45541;BME280;31265;49.680;8.608;2022-09-12T09:08:21;100603.53;;;23.34;92.80
45541;BME280;31265;49.680;8.608;2022-09-12T09:11:02;100598.69;;;23.01;91.48
45541;BME280;31265;49.680;8.608;2022-09-12T09:13:46;100598.06;;;23.02;97.25
45541;BME280;31265;49.680;8.608;2022-09-12T09:16:39;100602.53;;;23.81;88.76
45541;BME280;31265;49.680;8.608;2022-09-12T09:19:21;100597.88;;;23.52;87.61
45541;BME280;31265;49.680;8.608;2022-09-12T09:21:54;100593.03;;;23.92;82.88
45541;BME280;31265;49.680;8.608;2022-09-12T09:24:27;100595.59;;;23.48;86.06
45541;BME280;31265;49.680;8.608;2022-09-12T09:27:02;100597.53;;;23.61;89.44
45541;BME280;31265;49.680;8.608;2022-09-12T09:29:53;100600.59;;;23.68;86.69
45541;BME280;31265;49.680;8.608;2022-09-12T09:32:27;100598.16;;;23.78;82.94
45541;BME280;31265;49.680;8.608;2022-09-12T09:34:58;100602.75;;;23.87;83.75
45541;BME280;31265;49.680;8.608;2022-09-12T09:37:31;100598.06;;;23.76;84.08
45541;BME280;31265;49.680;8.608;2022-09-12T09:40:11;100593.09;;;23.94;84.89
45541;BME280;31265;49.680;8.608;2022-09-12T09:42:44;100598.84;;;24.36;79.34
45541;BME280;31265;49.680;8.608;2022-09-12T09:45:21;100601.38;;;24.68;71.98
45541;BME280;31265;49.680;8.608;2022-09-12T09:47:56;100589.88;;;24.64;73.60
45541;BME280;31265;49.680;8.608;2022-09-12T09:50:25;100587.78;;;25.30;71.02
45541;BME280;31265;49.680;8.608;2022-09-12T09:52:55;100594.66;;;25.71;63.77
45541;BME280;31265;49.680;8.608;2022-09-12T09:55:29;100578.22;;;25.44;66.05
45541;BME280;31265;49.680;8.608;2022-09-12T09:57:59;100579.41;;;25.35;62.62
45541;BME280;31265;49.680;8.608;2022-09-12T10:00:29;100577.63;;;25.95;62.03
45541;BME280;31265;49.680;8.608;2022-09-12T10:05:50;100577.94;;;25.82;60.60
45541;BME280;31265;49.680;8.608;2022-09-12T10:08:20;100572.97;;;25.82;59.79
45541;BME280;31265;49.680;8.608;2022-09-12T10:10:54;100573.63;;;26.05;60.17
45541;BME280;31265;49.680;8.608;2022-09-12T10:13:27;100576.25;;;26.79;55.06
45541;BME280;31265;49.680;8.608;2022-09-12T10:15:59;100574.00;;;26.73;53.87
45541;BME280;31265;49.680;8.608;2022-09-12T10:18:40;100567.19;;;26.56;52.07
45541;BME280;31265;49.680;8.608;2022-09-12T10:21:15;100567.91;;;26.87;48.34
45541;BME280;31265;49.680;8.608;2022-09-12T10:23:45;100564.78;;;26.47;49.35
45541;BME280;31265;49.680;8.608;2022-09-12T10:26:18;100564.34;;;26.56;50.89
45541;BME280;31265;49.680;8.608;2022-09-12T10:28:49;100567.59;;;27.33;46.92
45541;BME280;31265;49.680;8.608;2022-09-12T10:31:26;100563.09;;;26.64;51.94
45541;BME280;31265;49.680;8.608;2022-09-12T10:33:58;100551.25;;;26.47;50.25
45541;BME280;31265;49.680;8.608;2022-09-12T10:36:34;100555.59;;;26.22;50.95
45541;BME280;31265;49.680;8.608;2022-09-12T10:39:04;100553.03;;;25.32;54.16
45541;BME280;31265;49.680;8.608;2022-09-12T10:41:34;100546.78;;;25.62;56.65
45541;BME280;31265;49.680;8.608;2022-09-12T10:44:07;100545.03;;;25.74;54.97
45541;BME280;31265;49.680;8.608;2022-09-12T10:46:39;100548.09;;;26.61;49.10
45541;BME280;31265;49.680;8.608;2022-09-12T10:49:27;100548.97;;;27.28;46.32
45541;BME280;31265;49.680;8.608;2022-09-12T10:51:57;100543.66;;;26.84;49.02
45541;BME280;31265;49.680;8.608;2022-09-12T10:54:43;100538.09;;;26.32;50.48
45541;BME280;31265;49.680;8.608;2022-09-12T10:57:26;100532.66;;;26.70;49.28
45541;BME280;31265;49.680;8.608;2022-09-12T11:00:07;100530.38;;;27.25;48.66
45541;BME280;31265;49.680;8.608;2022-09-12T11:02:47;100525.22;;;26.57;48.41
45541;BME280;31265;49.680;8.608;2022-09-12T11:05:32;100523.56;;;26.78;47.22
45541;BME280;31265;49.680;8.608;2022-09-12T11:08:11;100521.91;;;26.67;48.65
45541;BME280;31265;49.680;8.608;2022-09-12T11:10:48;100517.59;;;26.37;46.53
45541;BME280;31265;49.680;8.608;2022-09-12T11:13:40;100519.47;;;27.50;44.19
45541;BME280;31265;49.680;8.608;2022-09-12T11:16:22;100506.34;;;27.69;43.28
45541;BME280;31265;49.680;8.608;2022-09-12T11:19:04;100507.59;;;27.96;41.72
45541;BME280;31265;49.680;8.608;2022-09-12T11:21:48;100511.47;;;27.76;46.03
45541;BME280;31265;49.680;8.608;2022-09-12T11:24:30;100505.81;;;27.78;43.56
45541;BME280;31265;49.680;8.608;2022-09-12T11:27:22;100511.41;;;28.51;41.12
45541;BME280;31265;49.680;8.608;2022-09-12T11:29:58;100507.09;;;27.71;44.48
45541;BME280;31265;49.680;8.608;2022-09-12T11:32:45;100506.31;;;28.03;44.04
45541;BME280;31265;49.680;8.608;2022-09-12T11:35:19;100506.03;;;27.88;42.56
45541;BME280;31265;49.680;8.608;2022-09-12T11:38:11;100503.16;;;28.69;39.96
45541;BME280;31265;49.680;8.608;2022-09-12T11:40:43;100506.81;;;29.25;38.66
45541;BME280;31265;49.680;8.608;2022-09-12T11:43:22;100508.06;;;28.22;41.00
45541;BME280;31265;49.680;8.608;2022-09-12T11:45:52;100502.31;;;28.20;42.72
45541;BME280;31265;49.680;8.608;2022-09-12T11:48:30;100493.72;;;28.59;39.87
45541;BME280;31265;49.680;8.608;2022-09-12T11:51:04;100489.16;;;27.28;42.83
45541;BME280;31265;49.680;8.608;2022-09-12T11:53:37;100487.22;;;26.74;45.20
45541;BME280;31265;49.680;8.608;2022-09-12T11:56:12;100487.28;;;26.48;46.66
45541;BME280;31265;49.680;8.608;2022-09-12T11:58:43;100496.16;;;27.23;45.23
45541;BME280;31265;49.680;8.608;2022-09-12T12:01:17;100482.41;;;27.13;44.86
45541;BME280;31265;49.680;8.608;2022-09-12T12:03:48;100480.81;;;28.13;41.13
45541;BME280;31265;49.680;8.608;2022-09-12T12:06:20;100478.31;;;27.57;42.79
45541;BME280;31265;49.680;8.608;2022-09-12T12:08:53;100483.63;;;28.11;40.17
45541;BME280;31265;49.680;8.608;2022-09-12T12:11:28;100480.06;;;27.74;42.88
45541;BME280;31265;49.680;8.608;2022-09-12T12:13:59;100462.06;;;28.00;40.14
45541;BME280;31265;49.680;8.608;2022-09-12T12:16:30;100464.44;;;27.07;43.17
45541;BME280;31265;49.680;8.608;2022-09-12T12:19:02;100463.28;;;27.18;40.82
45541;BME280;31265;49.680;8.608;2022-09-12T12:21:40;100467.03;;;26.62;44.41
45541;BME280;31265;49.680;8.608;2022-09-12T12:24:19;100464.13;;;26.32;46.88
45541;BME280;31265;49.680;8.608;2022-09-12T12:26:57;100453.91;;;26.21;45.43
45541;BME280;31265;49.680;8.608;2022-09-12T12:29:37;100442.00;;;26.56;45.11
45541;BME280;31265;49.680;8.608;2022-09-12T12:32:21;100450.66;;;27.63;41.82
45541;BME280;31265;49.680;8.608;2022-09-12T12:34:49;100444.56;;;27.09;45.49
45541;BME280;31265;49.680;8.608;2022-09-12T12:37:49;100436.31;;;26.89;46.07
45541;BME280;31265;49.680;8.608;2022-09-12T12:40:26;100438.31;;;27.51;40.95
45541;BME280;31265;49.680;8.608;2022-09-12T12:43:28;100437.66;;;27.18;42.99
45541;BME280;31265;49.680;8.608;2022-09-12T12:46:01;100425.50;;;27.52;40.05
45541;BME280;31265;49.680;8.608;2022-09-12T12:48:34;100415.91;;;27.35;41.88
45541;BME280;31265;49.680;8.608;2022-09-12T12:51:22;100405.16;;;28.08;40.72
45541;BME280;31265;49.680;8.608;2022-09-12T12:53:53;100409.50;;;27.34;41.20
45541;BME280;31265;49.680;8.608;2022-09-12T12:56:34;100408.97;;;27.44;42.24
45541;BME280;31265;49.680;8.608;2022-09-12T12:59:15;100406.22;;;28.31;39.14
45541;BME280;31265;49.680;8.608;2022-09-12T13:01:46;100411.81;;;28.69;37.54
45541;BME280;31265;49.680;8.608;2022-09-12T13:04:24;100409.63;;;27.79;40.14
45541;BME280;31265;49.680;8.608;2022-09-12T13:06:59;100410.97;;;28.59;39.90
45541;BME280;31265;49.680;8.608;2022-09-12T13:09:37;100404.19;;;29.43;37.37
45541;BME280;31265;49.680;8.608;2022-09-12T13:12:10;100400.38;;;29.22;38.18
45541;BME280;31265;49.680;8.608;2022-09-12T13:14:53;100401.16;;;29.98;35.18
45541;BME280;31265;49.680;8.608;2022-09-12T13:17:25;100405.91;;;29.69;36.72